Time;durP1;ratioP1;P1;durP2;ratioP2;P2;SDS_P1;SDS_P2;PMS_P1;PMS_P2;Temp;Humidity;BMP_temperature;BMP_pressure;BME280_temperature;BME280_humidity;BME280_pressure;Samples;Min_cycle;Max_cycle;Signal;HPM_P1;HPM_P2
2023/07/10 00:02:25;;;;;;;16.02;8.55;;;23.40;74.30;;;;;;5076048;28;20028;-65
2023/07/10 00:04:50;;;;;;;12.43;8.40;;;23.40;74.40;;;;;;5057457;28;20032;-65
2023/07/10 00:07:16;;;;;;;14.13;9.32;;;23.40;74.50;;;;;;5076671;28;20028;-64
2023/07/10 00:09:42;;;;;;;12.95;8.07;;;23.40;74.50;;;;;;5076299;28;20036;-64
2023/07/10 00:12:16;;;;;;;14.80;8.18;;;23.40;74.50;;;;;;5048808;28;20029;-65
2023/07/10 00:14:42;;;;;;;15.65;8.43;;;23.30;74.50;;;;;;5073786;28;20029;-65
2023/07/10 00:17:09;;;;;;;15.05;8.35;;;23.30;74.50;;;;;;5076197;28;20033;-65
2023/07/10 00:19:35;;;;;;;15.50;8.38;;;23.30;74.50;;;;;;5057994;28;20044;-64
2023/07/10 00:22:01;;;;;;;14.68;8.25;;;23.30;74.50;;;;;;5076382;28;20542;-64
2023/07/10 00:24:26;;;;;;;15.25;8.38;;;23.30;74.50;;;;;;5071450;28;20036;-64
2023/07/10 00:26:52;;;;;;;11.73;8.00;;;23.40;74.50;;;;;;5053030;28;20339;-64
2023/07/10 00:29:33;;;;;;;12.65;7.78;;;23.30;74.50;;;;;;5067755;28;20113;-65
2023/07/10 00:32:02;;;;;;;10.55;7.32;;;23.30;74.50;;;;;;5059127;28;20361;-65
2023/07/10 00:34:28;;;;;;;12.68;8.20;;;23.30;74.60;;;;;;5073585;28;20025;-64
2023/07/10 00:36:54;;;;;;;15.88;7.40;;;23.30;74.60;;;;;;5057332;28;20047;-65
2023/07/10 00:39:28;;;;;;;12.70;8.13;;;23.30;74.60;;;;;;5057981;28;20024;-64
2023/07/10 00:41:59;;;;;;;12.52;7.95;;;23.30;74.60;;;;;;5076137;28;20025;-64
2023/07/10 00:44:29;;;;;;;;;;;23.20;74.60;;;;;;5055619;28;20083;-64
2023/07/10 00:46:59;;;;;;;11.18;6.55;;;23.20;74.50;;;;;;5057266;28;19908;-65
2023/07/10 00:49:52;;;;;;;11.10;7.10;;;23.20;74.60;;;;;;5054398;28;20029;-65
2023/07/10 00:52:22;;;;;;;14.85;7.70;;;23.20;74.40;;;;;;5075741;28;20060;-65
2023/07/10 00:54:52;;;;;;;13.65;7.22;;;23.20;74.60;;;;;;5074131;28;20338;-64
2023/07/10 00:57:33;;;;;;;11.10;7.00;;;23.20;74.50;;;;;;5075974;28;20032;-65
2023/07/10 01:00:01;;;;;;;12.75;6.97;;;23.20;74.50;;;;;;5057171;28;20294;-65
2023/07/10 01:02:27;;;;;;;11.90;7.10;;;23.20;74.50;;;;;;5058090;28;20060;-65
2023/07/10 01:04:58;;;;;;;13.02;7.68;;;23.20;74.50;;;;;;5054857;28;20043;-64
2023/07/10 01:07:26;;;;;;;11.43;7.35;;;23.20;74.40;;;;;;5052782;28;20078;-64
2023/07/10 01:10:05;;;;;;;13.77;7.85;;;23.20;74.40;;;;;;5048594;28;20041;-64
2023/07/10 01:12:31;;;;;;;12.13;7.60;;;23.20;74.30;;;;;;5075579;28;20161;-64
2023/07/10 01:14:57;;;;;;;11.40;7.28;;;23.20;74.40;;;;;;5056792;28;20412;-64
2023/07/10 01:17:24;;;;;;;11.43;7.53;;;23.20;74.40;;;;;;5073313;28;20071;-64
2023/07/10 01:19:55;;;;;;;13.23;8.02;;;23.20;74.30;;;;;;5040862;28;20029;-64
2023/07/10 01:22:21;;;;;;;11.75;6.60;;;23.10;74.40;;;;;;5074313;28;20037;-65
2023/07/10 01:24:52;;;;;;;11.13;7.00;;;23.10;74.40;;;;;;5057759;28;20078;-64
2023/07/10 01:27:19;;;;;;;14.18;7.25;;;23.10;74.30;;;;;;5054369;28;20433;-64
2023/07/10 01:30:02;;;;;;;13.30;7.13;;;23.10;74.30;;;;;;5057564;28;20033;-65
2023/07/10 01:32:28;;;;;;;14.27;7.30;;;23.10;74.40;;;;;;5077709;28;20021;-64
2023/07/10 01:34:58;;;;;;;12.68;6.40;;;23.10;74.40;;;;;;5075197;28;20745;-65
2023/07/10 01:37:24;;;;;;;10.45;6.63;;;23.10;74.30;;;;;;5072385;28;20341;-65
2023/07/10 01:39:52;;;;;;;12.95;7.32;;;23.10;74.30;;;;;;5074131;28;20036;-65
2023/07/10 01:42:19;;;;;;;11.73;6.50;;;23.00;74.20;;;;;;5056825;28;20055;-64
2023/07/10 01:44:47;;;;;;;9.90;6.18;;;23.00;74.30;;;;;;5075151;28;20040;-65
2023/07/10 01:47:14;;;;;;;12.50;6.47;;;22.90;74.30;;;;;;5053877;28;20029;-65
2023/07/10 01:49:50;;;;;;;11.13;6.57;;;22.90;74.50;;;;;;5067361;28;20450;-65
2023/07/10 01:52:19;;;;;;;11.45;6.43;;;23.00;74.10;;;;;;5056291;28;20036;-64
2023/07/10 01:54:46;;;;;;;12.43;6.07;;;23.00;74.10;;;;;;5056349;28;20107;-64
2023/07/10 01:57:13;;;;;;;12.52;6.70;;;22.90;74.00;;;;;;5055193;28;20486;-65
2023/07/10 01:59:39;;;;;;;10.57;6.25;;;22.90;74.00;;;;;;5072630;28;20035;-64
2023/07/10 02:02:06;;;;;;;10.10;5.80;;;22.90;74.00;;;;;;5072646;28;20036;-65
2023/07/10 02:04:32;;;;;;;8.70;5.63;;;22.90;74.00;;;;;;5057082;28;20461;-65
2023/07/10 02:06:59;;;;;;;10.15;5.43;;;22.80;73.90;;;;;;5055875;28;20101;-64
2023/07/10 02:09:28;;;;;;;10.10;5.50;;;22.90;73.90;;;;;;5035584;28;20099;-64
2023/07/10 02:11:55;;;;;;;9.93;5.47;;;22.80;73.80;;;;;;5052798;28;20120;-64
2023/07/10 02:14:21;;;;;;;8.70;4.95;;;22.90;73.80;;;;;;5054121;28;20025;-64
2023/07/10 02:16:48;;;;;;;9.25;4.75;;;22.90;73.70;;;;;;5053091;28;20392;-64
2023/07/10 02:19:16;;;;;;;9.02;5.10;;;22.90;73.60;;;;;;5042131;28;21034;-64
2023/07/10 02:21:42;;;;;;;10.48;4.38;;;22.90;73.50;;;;;;5051621;28;20450;-64
2023/07/10 02:24:08;;;;;;;11.40;4.70;;;22.90;73.50;;;;;;5052881;28;20032;-65
2023/07/10 02:26:34;;;;;;;9.57;4.82;;;22.90;73.40;;;;;;5052796;28;20469;-65
2023/07/10 02:29:00;;;;;;;11.13;4.88;;;22.80;73.40;;;;;;5050378;28;20021;-64
2023/07/10 02:31:27;;;;;;;8.93;4.63;;;22.90;73.30;;;;;;5051262;28;20032;-64
2023/07/10 02:33:53;;;;;;;7.60;4.60;;;22.80;73.60;;;;;;5053294;28;20368;-64
2023/07/10 02:36:21;;;;;;;9.00;4.00;;;22.80;73.20;;;;;;5052949;28;20066;-64
2023/07/10 02:38:47;;;;;;;9.60;4.35;;;22.80;73.20;;;;;;5035654;28;20106;-64
2023/07/10 02:41:13;;;;;;;9.60;4.10;;;22.80;73.20;;;;;;5050307;28;20048;-64
2023/07/10 02:43:38;;;;;;;11.25;4.45;;;22.80;73.20;;;;;;5035642;28;20033;-64
2023/07/10 02:46:04;;;;;;;9.25;4.05;;;22.80;73.10;;;;;;5054323;28;20017;-64
2023/07/10 02:48:30;;;;;;;11.48;4.40;;;22.80;73.10;;;;;;5038683;28;20017;-65
2023/07/10 02:50:55;;;;;;;9.07;3.85;;;22.80;73.00;;;;;;5053391;28;20036;-65
2023/07/10 02:53:22;;;;;;;8.57;3.65;;;22.80;73.00;;;;;;5050412;28;20025;-65
2023/07/10 02:55:48;;;;;;;8.50;3.72;;;22.70;73.00;;;;;;5053487;28;20036;-65
2023/07/10 02:58:14;;;;;;;7.72;3.38;;;22.70;73.00;;;;;;5051995;28;20032;-64
2023/07/10 03:00:40;;;;;;;7.70;3.65;;;22.70;73.00;;;;;;5051550;28;20055;-65
2023/07/10 03:03:06;;;;;;;7.55;3.60;;;22.70;73.60;;;;;;5052053;28;20029;-64
2023/07/10 03:05:32;;;;;;;9.77;3.78;;;22.70;72.80;;;;;;5035344;28;20024;-64
2023/07/10 03:07:57;;;;;;;6.93;3.28;;;22.70;72.80;;;;;;5053404;28;20024;-65
2023/07/10 03:10:23;;;;;;;6.95;2.90;;;22.70;72.70;;;;;;5072232;28;20342;-64
2023/07/10 03:12:49;;;;;;;7.60;2.97;;;22.70;72.60;;;;;;5073178;28;20024;-64
2023/07/10 03:15:15;;;;;;;8.65;3.30;;;22.70;72.50;;;;;;5055632;28;20373;-65
2023/07/10 03:17:45;;;;;;;7.10;3.10;;;22.70;72.40;;;;;;5054423;28;20039;-65
2023/07/10 03:20:11;;;;;;;7.82;3.28;;;22.60;72.20;;;;;;5073137;28;20218;-64
2023/07/10 03:22:37;;;;;;;7.63;3.05;;;22.60;72.30;;;;;;5070190;28;20434;-65
2023/07/10 03:25:03;;;;;;;7.38;2.88;;;22.60;72.30;;;;;;5055832;28;20040;-64
2023/07/10 03:27:29;;;;;;;7.22;3.10;;;22.60;72.30;;;;;;5072869;28;20020;-65
2023/07/10 03:29:55;;;;;;;8.63;3.50;;;22.50;72.20;;;;;;5047717;28;20369;-64
2023/07/10 03:32:21;;;;;;;6.40;3.10;;;22.60;72.20;;;;;;5073136;28;20036;-64
2023/07/10 03:34:49;;;;;;;8.18;3.00;;;22.50;72.00;;;;;;5076832;28;20033;-64
2023/07/10 03:37:16;;;;;;;7.00;3.13;;;22.50;71.80;;;;;;5076840;28;20054;-64
2023/07/10 03:39:41;;;;;;;5.93;2.55;;;22.50;72.40;;;;;;5077204;28;20043;-64
2023/07/10 03:42:07;;;;;;;7.85;3.00;;;22.50;71.70;;;;;;5075567;28;20021;-64
2023/07/10 03:44:34;;;;;;;7.35;3.30;;;22.50;71.60;;;;;;5076526;28;20054;-65
2023/07/10 03:47:00;;;;;;;7.03;2.72;;;22.50;71.60;;;;;;5077646;28;20079;-64
2023/07/10 03:49:25;;;;;;;5.50;2.65;;;22.50;71.60;;;;;;5075477;28;20393;-64
2023/07/10 03:51:51;;;;;;;6.60;2.67;;;22.50;71.70;;;;;;5058896;28;20407;-64
2023/07/10 03:54:17;;;;;;;6.35;2.80;;;22.50;71.70;;;;;;5075347;28;20024;-64
2023/07/10 03:56:43;;;;;;;8.48;3.28;;;22.50;71.70;;;;;;5041214;28;20074;-64
2023/07/10 03:59:09;;;;;;;7.38;2.88;;;22.50;71.70;;;;;;5054076;28;20070;-64
2023/07/10 04:01:35;;;;;;;7.05;3.20;;;22.50;71.80;;;;;;5071720;28;20071;-64
2023/07/10 04:04:01;;;;;;;8.43;3.78;;;22.40;71.60;;;;;;5057771;28;20481;-64
2023/07/10 04:06:27;;;;;;;9.57;3.75;;;22.40;71.60;;;;;;5076988;28;20028;-65
2023/07/10 04:08:53;;;;;;;7.60;3.80;;;22.40;71.60;;;;;;5075410;28;20091;-64
2023/07/10 04:11:21;;;;;;;7.13;3.17;;;22.40;71.60;;;;;;5055809;28;20113;-64
2023/07/10 04:13:49;;;;;;;6.68;3.45;;;22.40;71.50;;;;;;5073049;28;20075;-65
2023/07/10 04:16:26;;;;;;;8.18;3.55;;;22.40;71.40;;;;;;5074384;28;20025;-64
2023/07/10 04:18:53;;;;;;;8.68;3.78;;;22.40;71.20;;;;;;5074514;28;20032;-64
2023/07/10 04:21:26;;;;;;;8.82;3.38;;;22.40;71.00;;;;;;5076409;28;20033;-64
2023/07/10 04:23:52;;;;;;;7.68;3.55;;;22.40;71.50;;;;;;5073704;28;20053;-64
2023/07/10 04:26:30;;;;;;;8.27;3.97;;;22.40;70.70;;;;;;5075580;28;20028;-64
2023/07/10 04:28:58;;;;;;;8.55;3.50;;;22.40;70.50;;;;;;5073917;28;20024;-64
2023/07/10 04:31:24;;;;;;;6.97;3.03;;;22.40;70.50;;;;;;5052732;28;20334;-64
2023/07/10 04:33:51;;;;;;;7.38;3.55;;;22.30;70.40;;;;;;5073767;28;20035;-64
2023/07/10 04:36:18;;;;;;;7.95;3.70;;;22.40;70.20;;;;;;5058811;28;20449;-64
2023/07/10 04:38:43;;;;;;;9.45;3.58;;;22.40;70.10;;;;;;5073388;28;20052;-64
2023/07/10 04:41:15;;;;;;;8.25;3.42;;;22.30;70.10;;;;;;5073191;28;20020;-64
2023/07/10 04:43:41;;;;;;;8.88;3.72;;;22.30;69.90;;;;;;5072667;28;20032;-64
2023/07/10 04:46:10;;;;;;;8.32;3.50;;;22.30;70.00;;;;;;5075482;28;20437;-64
2023/07/10 04:48:36;;;;;;;7.85;3.50;;;22.30;69.80;;;;;;5074543;28;20060;-64
2023/07/10 04:51:04;;;;;;;6.85;3.15;;;22.30;69.60;;;;;;5071058;28;20056;-65
2023/07/10 04:53:33;;;;;;;7.72;3.13;;;22.30;69.50;;;;;;5072311;28;20099;-65
2023/07/10 04:56:01;;;;;;;6.82;3.53;;;22.40;69.40;;;;;;5054514;28;20097;-65
2023/07/10 04:58:28;;;;;;;7.40;3.28;;;22.40;69.40;;;;;;5071788;28;21517;-65
2023/07/10 05:01:00;;;;;;;7.78;3.85;;;22.40;69.40;;;;;;5071160;28;20033;-65
2023/07/10 05:03:26;;;;;;;7.93;3.30;;;22.40;69.40;;;;;;5069875;28;20029;-65
2023/07/10 05:05:57;;;;;;;9.10;3.70;;;22.40;69.40;;;;;;5053386;28;20343;-65
2023/07/10 05:08:23;;;;;;;;;;;22.40;69.30;;;;;;5054558;28;20033;-65
2023/07/10 05:10:51;;;;;;;8.20;3.50;;;22.40;69.30;;;;;;5070430;28;19958;-65
2023/07/10 05:13:21;;;;;;;9.13;3.30;;;22.40;69.20;;;;;;5055427;28;20017;-65
2023/07/10 05:15:48;;;;;;;7.57;3.08;;;22.40;69.10;;;;;;5054282;28;20039;-65
2023/07/10 05:18:14;;;;;;;7.20;3.28;;;22.30;69.10;;;;;;5069437;28;20044;-65
2023/07/10 05:20:43;;;;;;;7.57;3.30;;;22.30;69.10;;;;;;5071943;28;20025;-65
2023/07/10 05:23:09;;;;;;;7.43;3.30;;;22.30;69.00;;;;;;5070954;28;20028;-65
2023/07/10 05:25:34;;;;;;;6.57;2.70;;;22.30;69.00;;;;;;5070374;28;20103;-65
2023/07/10 05:28:01;;;;;;;7.53;2.67;;;22.30;68.90;;;;;;5072058;28;20028;-65
2023/07/10 05:30:28;;;;;;;6.72;2.90;;;22.30;68.90;;;;;;5065465;28;20024;-65
2023/07/10 05:32:53;;;;;;;8.13;3.55;;;22.40;68.90;;;;;;5054349;28;20020;-65
2023/07/10 05:35:20;;;;;;;7.18;2.70;;;22.40;68.70;;;;;;5051759;28;20450;-65
2023/07/10 05:37:45;;;;;;;6.03;2.80;;;22.40;68.70;;;;;;5070588;28;20441;-65
2023/07/10 05:40:11;;;;;;;5.82;2.55;;;22.40;68.60;;;;;;5052058;28;20103;-64
2023/07/10 05:42:39;;;;;;;7.40;3.03;;;22.50;68.40;;;;;;5071097;28;20108;-65
2023/07/10 05:45:05;;;;;;;8.75;3.10;;;22.50;68.10;;;;;;5054369;28;20403;-65
2023/07/10 05:47:31;;;;;;;6.55;2.47;;;22.50;68.00;;;;;;5071046;28;20062;-64
2023/07/10 05:49:57;;;;;;;7.90;2.65;;;22.50;68.00;;;;;;5051382;28;20020;-65
2023/07/10 05:52:23;;;;;;;9.32;3.03;;;22.40;68.00;;;;;;5065382;28;20411;-65
2023/07/10 05:54:48;;;;;;;8.15;2.72;;;22.40;68.10;;;;;;5068104;28;20050;-64
2023/07/10 05:57:14;;;;;;;7.53;2.45;;;22.40;68.20;;;;;;5052789;28;20032;-65
2023/07/10 05:59:40;;;;;;;6.53;2.80;;;22.40;68.30;;;;;;5069267;28;20032;-66
2023/07/10 06:02:11;;;;;;;6.75;2.78;;;22.40;68.30;;;;;;5052545;28;20033;-66
2023/07/10 06:04:38;;;;;;;6.80;2.72;;;22.50;68.20;;;;;;5067968;28;20066;-65
2023/07/10 06:07:04;;;;;;;7.30;3.00;;;22.60;68.00;;;;;;5068491;28;20047;-65
2023/07/10 06:09:30;;;;;;;5.00;2.40;;;22.80;67.60;;;;;;5067911;28;20044;-66
2023/07/10 06:11:56;;;;;;;8.38;2.65;;;22.90;67.10;;;;;;5050861;28;20020;-65
2023/07/10 06:14:21;;;;;;;6.90;2.83;;;23.00;66.70;;;;;;5068440;28;20067;-66
2023/07/10 06:16:47;;;;;;;8.32;2.78;;;23.10;66.40;;;;;;5049977;28;20122;-65
2023/07/10 06:19:13;;;;;;;6.80;2.50;;;23.20;66.30;;;;;;5066258;28;20064;-66
2023/07/10 06:21:39;;;;;;;7.75;2.80;;;23.30;66.10;;;;;;5067912;28;20024;-66
2023/07/10 06:24:05;;;;;;;8.35;2.47;;;23.40;65.70;;;;;;5050526;28;20033;-66
2023/07/10 06:26:31;;;;;;;7.68;2.70;;;23.50;65.50;;;;;;5068658;28;20108;-65
2023/07/10 06:28:57;;;;;;;9.15;2.47;;;23.60;65.30;;;;;;5063036;28;20237;-65
2023/07/10 06:31:23;;;;;;;7.53;2.30;;;23.70;65.00;;;;;;5050613;28;20028;-65
2023/07/10 06:33:50;;;;;;;7.95;2.67;;;23.80;64.60;;;;;;5065580;28;20040;-65
2023/07/10 06:36:16;;;;;;;7.65;2.42;;;23.90;64.40;;;;;;5032280;28;20028;-65
2023/07/10 06:38:41;;;;;;;6.70;2.20;;;24.00;64.10;;;;;;5067374;28;20046;-65
2023/07/10 06:41:09;;;;;;;6.00;2.10;;;24.00;63.80;;;;;;5048712;28;20028;-65
2023/07/10 06:43:35;;;;;;;4.90;2.30;;;24.10;63.40;;;;;;5065486;28;20013;-65
2023/07/10 06:46:01;;;;;;;5.90;2.00;;;24.20;63.10;;;;;;5069546;28;20043;-65
2023/07/10 06:48:27;;;;;;;5.50;2.38;;;24.30;62.80;;;;;;5071222;28;20023;-66
2023/07/10 06:50:54;;;;;;;5.95;1.88;;;24.40;62.50;;;;;;5069282;28;20032;-66
2023/07/10 06:53:21;;;;;;;7.57;2.03;;;24.50;62.40;;;;;;5065934;28;20020;-65
2023/07/10 06:55:55;;;;;;;5.18;1.50;;;24.60;61.90;;;;;;5048428;28;20361;-65
2023/07/10 06:58:21;;;;;;;6.10;2.13;;;24.70;61.30;;;;;;5066280;28;20401;-67
2023/07/10 07:00:47;;;;;;;5.25;2.05;;;24.90;61.10;;;;;;5068234;28;20039;-65
2023/07/10 07:03:13;;;;;;;6.03;2.22;;;24.90;60.70;;;;;;5050936;28;20025;-65
2023/07/10 07:05:43;;;;;;;6.03;1.63;;;25.00;60.50;;;;;;5050529;28;20037;-64
2023/07/10 07:08:10;;;;;;;5.35;1.50;;;25.20;60.20;;;;;;5066569;28;20099;-65
2023/07/10 07:10:43;;;;;;;6.50;1.80;;;25.30;59.80;;;;;;5068705;28;20033;-65
2023/07/10 07:13:10;;;;;;;4.88;1.80;;;25.40;59.20;;;;;;5067470;28;20473;-65
2023/07/10 07:15:36;;;;;;;4.57;1.50;;;25.50;59.00;;;;;;5065862;28;20025;-65
2023/07/10 07:18:03;;;;;;;5.28;1.67;;;25.60;59.50;;;;;;5063522;28;20064;-65
2023/07/10 07:20:30;;;;;;;7.40;1.83;;;25.70;58.50;;;;;;5049519;28;20031;-65
2023/07/10 07:22:55;;;;;;;5.00;1.70;;;25.90;58.30;;;;;;5066761;28;20025;-65
2023/07/10 07:25:21;;;;;;;4.97;1.60;;;26.00;58.10;;;;;;5067053;28;20036;-65
2023/07/10 07:27:47;;;;;;;5.50;1.77;;;26.20;58.00;;;;;;5068922;28;20020;-66
2023/07/10 07:30:13;;;;;;;6.38;1.60;;;26.30;57.60;;;;;;5048770;28;20421;-64
2023/07/10 07:32:38;;;;;;;5.05;1.73;;;26.40;57.30;;;;;;5047897;28;20028;-65
2023/07/10 07:35:04;;;;;;;5.07;1.75;;;26.50;56.90;;;;;;5051240;28;20074;-64
2023/07/10 07:37:30;;;;;;;6.60;1.35;;;26.60;56.50;;;;;;5067881;28;20036;-65
2023/07/10 07:39:57;;;;;;;3.40;1.48;;;26.70;56.20;;;;;;5049181;28;20021;-64
2023/07/10 07:42:23;;;;;;;8.02;1.98;;;26.80;55.80;;;;;;5068186;28;20058;-65
2023/07/10 07:44:48;;;;;;;6.03;1.48;;;26.90;55.30;;;;;;5068956;28;20937;-65
2023/07/10 07:47:15;;;;;;;6.38;1.65;;;26.90;54.80;;;;;;5050061;28;20024;-65
2023/07/10 07:49:41;;;;;;;7.85;2.17;;;27.00;54.50;;;;;;5069001;28;20025;-65
2023/07/10 07:52:07;;;;;;;4.75;1.77;;;27.00;54.20;;;;;;5033894;28;20033;-65
2023/07/10 07:54:32;;;;;;;6.05;1.70;;;27.10;54.00;;;;;;5050275;28;20131;-65
2023/07/10 07:56:58;;;;;;;6.78;1.58;;;27.20;53.80;;;;;;5067635;28;20155;-65
2023/07/10 07:59:24;;;;;;;7.68;1.88;;;27.30;53.50;;;;;;5050378;28;20111;-65
2023/07/10 08:01:50;;;;;;;5.38;1.50;;;27.30;53.20;;;;;;5068133;28;20083;-65
2023/07/10 08:04:18;;;;;;;6.28;1.35;;;27.30;53.20;;;;;;5068463;28;20032;-65
2023/07/10 08:06:46;;;;;;;6.07;1.65;;;27.40;52.90;;;;;;5067011;28;20024;-65
2023/07/10 08:09:12;;;;;;;5.10;1.52;;;27.40;52.70;;;;;;5068984;28;20047;-65
2023/07/10 08:11:37;;;;;;;6.00;1.73;;;27.50;52.80;;;;;;5067676;28;20044;-65
2023/07/10 08:14:03;;;;;;;6.53;1.67;;;27.60;52.80;;;;;;5067698;28;20397;-65
2023/07/10 08:16:29;;;;;;;5.18;1.60;;;27.70;52.70;;;;;;5068498;28;20055;-65
2023/07/10 08:18:55;;;;;;;5.13;1.52;;;27.90;52.70;;;;;;5070740;28;20111;-65
2023/07/10 08:21:21;;;;;;;6.70;1.65;;;27.90;52.50;;;;;;5072053;28;20107;-65
2023/07/10 08:23:47;;;;;;;5.10;1.60;;;28.00;52.40;;;;;;5058133;28;20444;-65
2023/07/10 08:26:13;;;;;;;6.40;1.40;;;28.10;52.10;;;;;;5058283;28;20024;-65
2023/07/10 08:28:39;;;;;;;8.57;1.60;;;28.30;52.10;;;;;;5076031;28;20035;-65
2023/07/10 08:31:05;;;;;;;8.68;1.73;;;28.20;51.80;;;;;;5074963;28;20026;-65
2023/07/10 08:33:31;;;;;;;6.65;2.03;;;28.30;51.80;;;;;;5074964;28;20513;-65
2023/07/10 08:36:01;;;;;;;6.03;2.15;;;28.30;52.00;;;;;;5056993;28;20116;-65
2023/07/10 08:38:27;;;;;;;5.50;1.65;;;28.30;51.80;;;;;;5047734;28;20338;-65
2023/07/10 08:40:57;;;;;;;6.07;1.48;;;28.40;51.70;;;;;;5075750;28;20040;-65
2023/07/10 08:43:25;;;;;;;5.07;1.73;;;28.40;51.40;;;;;;5075801;28;20039;-65
2023/07/10 08:45:55;;;;;;;6.53;1.73;;;28.40;51.30;;;;;;5074794;28;20310;-65
2023/07/10 08:48:56;;;;;;;5.45;1.98;;;28.50;51.50;;;;;;5056816;28;20318;-65
2023/07/10 08:51:27;;;;;;;4.90;1.65;;;28.60;51.20;;;;;;5065327;28;20045;-66
2023/07/10 08:53:57;;;;;;;8.88;2.28;;;28.60;51.10;;;;;;5055117;28;20025;-65
2023/07/10 08:56:28;;;;;;;7.85;1.60;;;28.70;51.00;;;;;;5067659;28;20099;-65
2023/07/10 08:59:01;;;;;;;6.88;2.03;;;28.70;51.10;;;;;;5070213;28;20303;-65
2023/07/10 09:01:39;;;;;;;6.15;1.63;;;28.80;51.00;;;;;;5055999;28;20395;-65
2023/07/10 09:04:09;;;;;;;7.78;2.00;;;28.90;50.60;;;;;;5067897;28;20028;-65
2023/07/10 09:06:40;;;;;;;5.55;2.05;;;28.90;50.40;;;;;;5054591;28;20032;-65
2023/07/10 09:09:27;;;;;;;5.97;1.63;;;29.00;50.30;;;;;;5071141;28;20028;-65
2023/07/10 09:11:57;;;;;;;4.20;1.67;;;28.90;50.10;;;;;;5053915;28;20016;-65
2023/07/10 09:14:42;;;;;;;4.43;1.70;;;28.90;50.30;;;;;;5058338;28;20033;-65
2023/07/10 09:17:37;;;;;;;5.95;1.95;;;28.80;50.40;;;;;;5057770;28;20047;-65
2023/07/10 09:20:06;;;;;;;6.43;2.00;;;28.90;50.10;;;;;;5020082;28;20036;-65
2023/07/10 09:22:34;;;;;;;4.68;1.50;;;29.00;50.00;;;;;;5075827;28;20097;-65
2023/07/10 09:25:00;;;;;;;5.63;1.52;;;29.00;49.80;;;;;;5073103;28;20025;-65
2023/07/10 09:27:26;;;;;;;4.65;1.42;;;29.00;49.80;;;;;;5070525;28;20337;-65
2023/07/10 09:29:55;;;;;;;7.68;1.98;;;28.90;49.60;;;;;;5069889;28;20032;-65
2023/07/10 09:32:21;;;;;;;8.23;1.90;;;28.90;49.60;;;;;;5070128;28;20024;-65
2023/07/10 09:34:58;;;;;;;5.28;1.70;;;29.10;49.80;;;;;;5055583;28;20036;-65
2023/07/10 09:37:32;;;;;;;5.72;2.17;;;29.20;49.30;;;;;;5074781;28;20040;-65
2023/07/10 09:40:40;;;;;;;5.82;1.63;;;29.30;49.00;;;;;;5074701;28;20315;-65
2023/07/10 09:43:16;;;;;;;5.80;1.65;;;29.50;48.80;;;;;;4974261;28;20084;-65
2023/07/10 09:45:49;;;;;;;5.50;1.50;;;29.60;48.30;;;;;;5061601;28;20044;-65
2023/07/10 09:48:18;;;;;;;7.15;1.58;;;29.70;48.00;;;;;;5075080;28;20330;-65
2023/07/10 09:50:46;;;;;;;5.40;1.73;;;29.80;47.60;;;;;;5057440;28;20028;-65
2023/07/10 09:53:46;;;;;;;6.53;1.70;;;29.90;47.40;;;;;;5075544;28;20085;-65
2023/07/10 09:56:30;;;;;;;5.03;1.70;;;29.90;47.30;;;;;;5073478;28;20029;-65
2023/07/10 09:58:56;;;;;;;5.65;1.50;;;29.90;47.10;;;;;;5055062;28;20060;-66
2023/07/10 10:01:28;;;;;;;5.53;1.52;;;29.90;47.00;;;;;;5050190;28;20020;-66
2023/07/10 10:03:54;;;;;;;5.18;1.38;;;29.90;46.80;;;;;;5054626;28;20044;-66
2023/07/10 10:06:25;;;;;;;5.45;1.67;;;29.90;47.00;;;;;;5073327;28;20070;-66
2023/07/10 10:08:51;;;;;;;6.53;1.60;;;29.90;46.90;;;;;;5074614;28;20377;-66
2023/07/10 10:11:28;;;;;;;6.22;1.77;;;29.90;47.00;;;;;;5074994;28;20056;-66
2023/07/10 10:13:58;;;;;;;4.47;1.40;;;30.00;47.10;;;;;;5075008;28;20028;-66
2023/07/10 10:16:41;;;;;;;6.05;1.77;;;30.10;46.90;;;;;;5073325;28;20020;-66
2023/07/10 10:19:39;;;;;;;4.38;1.40;;;30.10;46.60;;;;;;5070489;28;20107;-66
2023/07/10 10:22:14;;;;;;;6.70;1.85;;;30.20;47.10;;;;;;5067561;28;20040;-66
2023/07/10 10:24:40;;;;;;;4.72;1.48;;;30.20;46.30;;;;;;5068146;28;20060;-66
2023/07/10 10:27:16;;;;;;;5.22;1.48;;;30.40;46.20;;;;;;5047903;28;20016;-66
2023/07/10 10:30:10;;;;;;;4.78;1.42;;;30.50;45.80;;;;;;5050968;28;20402;-66
2023/07/10 10:33:04;;;;;;;4.53;1.50;;;30.60;45.20;;;;;;5068266;28;20437;-66
2023/07/10 10:35:40;;;;;;;3.88;1.23;;;30.70;45.40;;;;;;5064253;28;20123;-66
2023/07/10 10:38:44;;;;;;;4.28;1.50;;;30.80;45.00;;;;;;5046504;28;20032;-66
2023/07/10 10:41:29;;;;;;;7.68;2.10;;;30.80;44.80;;;;;;5039803;28;20055;-66
2023/07/10 10:43:54;;;;;;;5.03;1.40;;;30.70;44.70;;;;;;5071072;28;20024;-66
2023/07/10 10:46:36;;;;;;;4.53;1.52;;;30.70;44.80;;;;;;5055233;28;20505;-66
2023/07/10 10:49:21;;;;;;;5.15;1.40;;;30.80;44.60;;;;;;5068272;28;20024;-66
2023/07/10 10:52:02;;;;;;;4.07;1.33;;;30.80;44.20;;;;;;5040057;28;20078;-66
2023/07/10 10:54:52;;;;;;;5.18;1.50;;;30.90;43.90;;;;;;5072367;28;20378;-66
2023/07/10 10:57:27;;;;;;;5.70;1.77;;;30.90;43.80;;;;;;5050348;28;20020;-63
2023/07/10 11:00:30;;;;;;;5.78;1.92;;;31.00;43.80;;;;;;5052706;28;20333;-64
2023/07/10 11:03:17;;;;;;;4.03;1.33;;;31.10;43.80;;;;;;5049339;28;20024;-64
2023/07/10 11:05:50;;;;;;;5.63;1.52;;;31.00;43.60;;;;;;5031803;28;20051;-64
2023/07/10 11:08:44;;;;;;;6.90;1.50;;;31.00;43.70;;;;;;5066373;28;20036;-64
2023/07/10 11:11:23;;;;;;;4.95;1.42;;;31.10;43.80;;;;;;5072534;28;20032;-64
2023/07/10 11:13:50;;;;;;;5.07;1.73;;;31.00;43.90;;;;;;5069378;28;20024;-64
2023/07/10 11:16:17;;;;;;;8.73;1.92;;;30.80;44.30;;;;;;5065596;28;20028;-64
2023/07/10 11:18:43;;;;;;;6.32;1.52;;;30.70;44.40;;;;;;5065178;28;20399;-64
2023/07/10 11:21:09;;;;;;;5.25;1.70;;;30.50;44.40;;;;;;5065063;28;20365;-64
2023/07/10 11:23:44;;;;;;;7.35;1.80;;;30.20;44.50;;;;;;5068993;28;20029;-65
2023/07/10 11:26:15;;;;;;;6.20;1.60;;;29.90;44.50;;;;;;5066230;28;20040;-64
2023/07/10 11:29:19;;;;;;;8.07;1.70;;;29.70;44.60;;;;;;5065946;28;20426;-64
2023/07/10 11:31:52;;;;;;;4.13;1.35;;;29.80;44.80;;;;;;5065702;28;20444;-64
2023/07/10 11:34:30;;;;;;;4.05;1.52;;;29.90;44.80;;;;;;5066740;28;20096;-64
2023/07/10 11:36:58;;;;;;;5.78;1.58;;;29.90;45.00;;;;;;5052758;28;20028;-64
2023/07/10 11:39:36;;;;;;;6.88;1.70;;;29.80;45.00;;;;;;5069038;28;20461;-64
2023/07/10 11:42:02;;;;;;;7.25;1.77;;;29.60;45.20;;;;;;5070937;28;20031;-64
2023/07/10 11:44:34;;;;;;;5.10;1.58;;;29.30;45.60;;;;;;5068956;28;20434;-64
2023/07/10 11:47:02;;;;;;;6.13;1.83;;;29.30;45.70;;;;;;5072517;28;20017;-64
2023/07/10 11:49:45;;;;;;;7.47;1.65;;;29.50;45.70;;;;;;5071595;28;20020;-64
2023/07/10 11:52:11;;;;;;;7.35;1.73;;;29.50;45.30;;;;;;5055597;28;20038;-64
2023/07/10 11:54:40;;;;;;;5.32;1.52;;;29.60;45.50;;;;;;5058627;28;20034;-64
2023/07/10 11:57:09;;;;;;;4.43;1.30;;;29.80;45.50;;;;;;5073926;28;20111;-64
2023/07/10 11:59:48;;;;;;;5.53;1.45;;;29.90;45.40;;;;;;5057188;28;20028;-63
2023/07/10 12:02:27;;;;;;;5.25;1.50;;;30.10;45.30;;;;;;5074835;28;20017;-64
2023/07/10 12:04:53;;;;;;;8.57;2.25;;;30.20;45.30;;;;;;5058515;28;20029;-64
2023/07/10 12:07:19;;;;;;;4.80;1.50;;;30.00;45.20;;;;;;5075749;28;20067;-64
2023/07/10 12:09:59;;;;;;;7.35;1.90;;;29.90;45.30;;;;;;5052607;28;20125;-64
2023/07/10 12:12:33;;;;;;;3.58;1.27;;;29.90;45.00;;;;;;5054536;28;20049;-64
2023/07/10 12:15:02;;;;;;;5.38;1.30;;;29.80;45.20;;;;;;5056023;28;20064;-64
2023/07/10 12:17:30;;;;;;;6.25;1.75;;;29.90;45.20;;;;;;5051767;28;20036;-68
2023/07/10 12:20:00;;;;;;;5.35;1.58;;;29.90;45.20;;;;;;5057178;28;20033;-64
2023/07/10 12:22:32;;;;;;;5.70;1.42;;;29.90;45.20;;;;;;5052772;28;20462;-64
2023/07/10 12:25:04;;;;;;;5.78;1.75;;;29.90;45.20;;;;;;5057243;28;20074;-64
2023/07/10 12:27:35;;;;;;;8.35;2.03;;;29.80;45.00;;;;;;5056168;28;20199;-64
2023/07/10 12:30:03;;;;;;;5.18;1.70;;;29.70;45.20;;;;;;5056037;28;20067;-65
2023/07/10 12:32:33;;;;;;;7.25;1.88;;;29.70;45.50;;;;;;5053883;28;20017;-64
2023/07/10 12:35:00;;;;;;;5.55;1.95;;;29.70;45.40;;;;;;5055878;28;20052;-64
2023/07/10 12:37:26;;;;;;;7.35;1.77;;;29.60;45.60;;;;;;5056726;28;20025;-63
2023/07/10 12:39:52;;;;;;;5.13;1.30;;;29.60;45.50;;;;;;5056019;28;20439;-65
2023/07/10 12:42:37;;;;;;;4.25;1.65;;;29.60;45.50;;;;;;5055119;28;20036;-64
2023/07/10 12:45:14;;;;;;;5.05;1.50;;;29.60;45.50;;;;;;5055506;28;20474;-65
2023/07/10 12:47:45;;;;;;;7.30;1.45;;;29.50;45.50;;;;;;5044195;28;20369;-65
2023/07/10 12:50:10;;;;;;;;;;;29.60;45.50;;;;;;5055583;28;20017;-65
2023/07/10 12:52:37;;;;;;;6.22;1.60;;;29.60;45.70;;;;;;5051273;28;20312;-65
2023/07/10 12:55:15;;;;;;;4.57;1.50;;;29.50;45.70;;;;;;5054748;28;20028;-65
2023/07/10 12:57:41;;;;;;;6.53;1.95;;;29.40;45.60;;;;;;5042035;28;20549;-65
2023/07/10 13:00:09;;;;;;;6.55;1.80;;;29.30;45.70;;;;;;5054517;28;20104;-64